sensor_id;sensor_type;location;lat;lon;timestamp;temperature;humidity
45137;DHT22;30894;51.740;19.498;2022-08-03T00:00:52;14.20;99.90
45137;DHT22;30894;51.740;19.498;2022-08-03T00:03:18;14.10;99.90
45137;DHT22;30894;51.740;19.498;2022-08-03T00:05:44;14.10;99.90
45137;DHT22;30894;51.740;19.498;2022-08-03T00:08:10;14.10;99.90
45137;DHT22;30894;51.740;19.498;2022-08-03T00:10:36;14.20;99.90
45137;DHT22;30894;51.740;19.498;2022-08-03T00:13:03;14.20;99.90
45137;DHT22;30894;51.740;19.498;2022-08-03T00:15:29;14.20;99.90
45137;DHT22;30894;51.740;19.498;2022-08-03T00:17:55;14.10;99.90
45137;DHT22;30894;51.740;19.498;2022-08-03T00:20:21;14.10;99.90
45137;DHT22;30894;51.740;19.498;2022-08-03T00:22:48;14.10;99.90
45137;DHT22;30894;51.740;19.498;2022-08-03T00:25:14;14.10;99.90
45137;DHT22;30894;51.740;19.498;2022-08-03T00:27:40;14.10;99.90
45137;DHT22;30894;51.740;19.498;2022-08-03T00:30:06;14.20;99.90
45137;DHT22;30894;51.740;19.498;2022-08-03T00:32:33;14.20;99.90
45137;DHT22;30894;51.740;19.498;2022-08-03T00:34:59;14.20;99.90
45137;DHT22;30894;51.740;19.498;2022-08-03T00:37:25;14.20;99.90
45137;DHT22;30894;51.740;19.498;2022-08-03T00:39:51;14.20;99.90
45137;DHT22;30894;51.740;19.498;2022-08-03T00:42:17;14.20;99.90
45137;DHT22;30894;51.740;19.498;2022-08-03T00:44:44;14.10;99.90
45137;DHT22;30894;51.740;19.498;2022-08-03T00:47:10;14.10;99.90
45137;DHT22;30894;51.740;19.498;2022-08-03T00:49:38;14.10;99.90
45137;DHT22;30894;51.740;19.498;2022-08-03T00:52:05;14.00;99.90
45137;DHT22;30894;51.740;19.498;2022-08-03T00:54:36;14.00;99.90
45137;DHT22;30894;51.740;19.498;2022-08-03T00:57:03;14.00;99.90
45137;DHT22;30894;51.740;19.498;2022-08-03T00:59:30;14.00;99.90
45137;DHT22;30894;51.740;19.498;2022-08-03T01:01:56;14.00;99.90
45137;DHT22;30894;51.740;19.498;2022-08-03T01:04:22;13.90;99.90
45137;DHT22;30894;51.740;19.498;2022-08-03T01:06:55;13.90;99.90
45137;DHT22;30894;51.740;19.498;2022-08-03T01:09:33;13.90;99.90
45137;DHT22;30894;51.740;19.498;2022-08-03T01:12:29;13.90;99.90
45137;DHT22;30894;51.740;19.498;2022-08-03T01:15:10;13.80;99.90
45137;DHT22;30894;51.740;19.498;2022-08-03T01:18:17;13.80;99.90
45137;DHT22;30894;51.740;19.498;2022-08-03T01:20:50;13.70;99.90
45137;DHT22;30894;51.740;19.498;2022-08-03T01:23:25;13.60;99.90
45137;DHT22;30894;51.740;19.498;2022-08-03T01:31:57;13.50;99.90
45137;DHT22;30894;51.740;19.498;2022-08-03T01:34:31;13.50;99.90
45137;DHT22;30894;51.740;19.498;2022-08-03T01:37:04;13.50;99.90
45137;DHT22;30894;51.740;19.498;2022-08-03T01:39:35;13.50;99.90
45137;DHT22;30894;51.740;19.498;2022-08-03T01:42:04;13.50;99.90
45137;DHT22;30894;51.740;19.498;2022-08-03T01:44:36;13.50;99.90
45137;DHT22;30894;51.740;19.498;2022-08-03T01:47:04;13.50;99.90
45137;DHT22;30894;51.740;19.498;2022-08-03T01:49:34;13.60;99.90
45137;DHT22;30894;51.740;19.498;2022-08-03T01:52:04;13.60;99.90
45137;DHT22;30894;51.740;19.498;2022-08-03T01:54:36;13.50;99.90
45137;DHT22;30894;51.740;19.498;2022-08-03T01:57:07;13.50;99.90
45137;DHT22;30894;51.740;19.498;2022-08-03T01:59:35;13.50;99.90
45137;DHT22;30894;51.740;19.498;2022-08-03T02:02:03;13.50;99.90
45137;DHT22;30894;51.740;19.498;2022-08-03T02:04:30;13.60;99.90
45137;DHT22;30894;51.740;19.498;2022-08-03T02:06:57;13.60;99.90
45137;DHT22;30894;51.740;19.498;2022-08-03T02:09:24;13.60;99.90
45137;DHT22;30894;51.740;19.498;2022-08-03T02:11:52;13.60;99.90
45137;DHT22;30894;51.740;19.498;2022-08-03T02:14:20;13.60;99.90
45137;DHT22;30894;51.740;19.498;2022-08-03T02:16:48;13.50;99.90
45137;DHT22;30894;51.740;19.498;2022-08-03T02:19:15;13.50;99.90
45137;DHT22;30894;51.740;19.498;2022-08-03T02:21:44;13.40;99.90
45137;DHT22;30894;51.740;19.498;2022-08-03T02:24:11;13.40;99.90
45137;DHT22;30894;51.740;19.498;2022-08-03T02:26:39;13.40;99.90
45137;DHT22;30894;51.740;19.498;2022-08-03T02:29:14;13.40;99.90
45137;DHT22;30894;51.740;19.498;2022-08-03T02:31:47;13.40;99.90
45137;DHT22;30894;51.740;19.498;2022-08-03T02:34:14;13.30;99.90
45137;DHT22;30894;51.740;19.498;2022-08-03T02:36:46;13.30;99.90
45137;DHT22;30894;51.740;19.498;2022-08-03T02:39:18;13.30;99.90
45137;DHT22;30894;51.740;19.498;2022-08-03T02:41:48;13.40;99.90
45137;DHT22;30894;51.740;19.498;2022-08-03T02:44:20;13.40;99.90
45137;DHT22;30894;51.740;19.498;2022-08-03T02:46:53;13.30;99.90
45137;DHT22;30894;51.740;19.498;2022-08-03T02:49:22;13.30;99.90
45137;DHT22;30894;51.740;19.498;2022-08-03T02:51:51;13.30;99.90
45137;DHT22;30894;51.740;19.498;2022-08-03T02:54:19;13.30;99.90
45137;DHT22;30894;51.740;19.498;2022-08-03T02:56:47;13.30;99.90
45137;DHT22;30894;51.740;19.498;2022-08-03T02:59:13;13.20;99.90
45137;DHT22;30894;51.740;19.498;2022-08-03T03:01:43;13.20;99.90
45137;DHT22;30894;51.740;19.498;2022-08-03T03:04:10;13.10;99.90
45137;DHT22;30894;51.740;19.498;2022-08-03T03:06:38;13.10;99.90
45137;DHT22;30894;51.740;19.498;2022-08-03T03:09:06;13.10;99.90
45137;DHT22;30894;51.740;19.498;2022-08-03T03:11:33;13.20;99.90
45137;DHT22;30894;51.740;19.498;2022-08-03T03:14:01;13.20;99.90
45137;DHT22;30894;51.740;19.498;2022-08-03T03:16:28;13.20;99.90
45137;DHT22;30894;51.740;19.498;2022-08-03T03:18:55;13.20;99.90
45137;DHT22;30894;51.740;19.498;2022-08-03T03:21:22;13.20;99.90
45137;DHT22;30894;51.740;19.498;2022-08-03T03:23:49;13.10;99.90
45137;DHT22;30894;51.740;19.498;2022-08-03T03:26:16;13.20;99.90
45137;DHT22;30894;51.740;19.498;2022-08-03T03:28:44;13.20;99.90
45137;DHT22;30894;51.740;19.498;2022-08-03T03:31:10;13.20;99.90
45137;DHT22;30894;51.740;19.498;2022-08-03T03:33:37;13.20;99.90
45137;DHT22;30894;51.740;19.498;2022-08-03T03:36:05;13.20;99.90
45137;DHT22;30894;51.740;19.498;2022-08-03T03:38:32;13.30;99.90
45137;DHT22;30894;51.740;19.498;2022-08-03T03:40:58;13.30;99.90
45137;DHT22;30894;51.740;19.498;2022-08-03T03:43:24;13.40;99.90
45137;DHT22;30894;51.740;19.498;2022-08-03T03:45:51;13.50;99.90
45137;DHT22;30894;51.740;19.498;2022-08-03T03:48:18;13.60;99.90
45137;DHT22;30894;51.740;19.498;2022-08-03T03:50:45;13.70;99.90
45137;DHT22;30894;51.740;19.498;2022-08-03T03:53:12;13.80;99.90
45137;DHT22;30894;51.740;19.498;2022-08-03T03:55:39;13.90;99.90
45137;DHT22;30894;51.740;19.498;2022-08-03T03:58:06;14.00;99.90
45137;DHT22;30894;51.740;19.498;2022-08-03T04:00:33;14.10;99.90
45137;DHT22;30894;51.740;19.498;2022-08-03T04:02:59;14.20;99.90
45137;DHT22;30894;51.740;19.498;2022-08-03T04:05:25;14.40;99.90
45137;DHT22;30894;51.740;19.498;2022-08-03T04:08:15;14.40;99.90
45137;DHT22;30894;51.740;19.498;2022-08-03T04:11:23;14.50;99.90
45137;DHT22;30894;51.740;19.498;2022-08-03T04:13:59;14.70;99.90
45137;DHT22;30894;51.740;19.498;2022-08-03T04:16:29;14.80;99.90
45137;DHT22;30894;51.740;19.498;2022-08-03T04:19:03;14.80;99.90
45137;DHT22;30894;51.740;19.498;2022-08-03T04:21:32;14.90;99.90
45137;DHT22;30894;51.740;19.498;2022-08-03T04:24:03;14.90;99.90
45137;DHT22;30894;51.740;19.498;2022-08-03T04:26:33;15.00;99.90
45137;DHT22;30894;51.740;19.498;2022-08-03T04:29:02;15.10;99.90
45137;DHT22;30894;51.740;19.498;2022-08-03T04:31:30;15.30;99.90
45137;DHT22;30894;51.740;19.498;2022-08-03T04:33:56;15.50;99.90
45137;DHT22;30894;51.740;19.498;2022-08-03T04:36:25;15.90;99.90
45137;DHT22;30894;51.740;19.498;2022-08-03T04:39:13;16.10;99.90
45137;DHT22;30894;51.740;19.498;2022-08-03T04:41:44;16.30;99.90
45137;DHT22;30894;51.740;19.498;2022-08-03T04:44:12;16.30;99.90
45137;DHT22;30894;51.740;19.498;2022-08-03T04:46:39;16.40;99.90
45137;DHT22;30894;51.740;19.498;2022-08-03T04:49:06;16.50;99.90
45137;DHT22;30894;51.740;19.498;2022-08-03T04:51:33;16.60;99.90
45137;DHT22;30894;51.740;19.498;2022-08-03T04:53:59;16.60;99.90
45137;DHT22;30894;51.740;19.498;2022-08-03T04:56:26;16.70;99.90
45137;DHT22;30894;51.740;19.498;2022-08-03T04:58:53;16.80;99.90
45137;DHT22;30894;51.740;19.498;2022-08-03T05:01:19;17.00;99.90
45137;DHT22;30894;51.740;19.498;2022-08-03T05:03:48;17.30;99.90
45137;DHT22;30894;51.740;19.498;2022-08-03T05:06:14;17.80;99.90
45137;DHT22;30894;51.740;19.498;2022-08-03T05:08:40;18.20;99.90
45137;DHT22;30894;51.740;19.498;2022-08-03T05:11:06;18.50;99.90
45137;DHT22;30894;51.740;19.498;2022-08-03T05:13:32;18.70;99.90
45137;DHT22;30894;51.740;19.498;2022-08-03T05:15:58;19.00;99.90
45137;DHT22;30894;51.740;19.498;2022-08-03T05:18:24;19.20;99.50
45137;DHT22;30894;51.740;19.498;2022-08-03T05:20:50;19.40;98.90
45137;DHT22;30894;51.740;19.498;2022-08-03T05:23:16;19.40;98.70
45137;DHT22;30894;51.740;19.498;2022-08-03T05:25:42;19.50;98.90
45137;DHT22;30894;51.740;19.498;2022-08-03T05:28:08;19.70;98.70
45137;DHT22;30894;51.740;19.498;2022-08-03T05:30:36;20.10;97.90
45137;DHT22;30894;51.740;19.498;2022-08-03T05:33:02;20.40;96.70
45137;DHT22;30894;51.740;19.498;2022-08-03T05:35:29;20.60;96.10
45137;DHT22;30894;51.740;19.498;2022-08-03T05:37:57;20.80;95.70
45137;DHT22;30894;51.740;19.498;2022-08-03T05:40:22;21.10;95.30
45137;DHT22;30894;51.740;19.498;2022-08-03T05:42:49;21.40;94.70
45137;DHT22;30894;51.740;19.498;2022-08-03T05:45:15;21.40;94.50
45137;DHT22;30894;51.740;19.498;2022-08-03T05:47:44;21.40;94.80
45137;DHT22;30894;51.740;19.498;2022-08-03T05:50:11;21.50;95.00
45137;DHT22;30894;51.740;19.498;2022-08-03T05:52:39;21.50;95.30
45137;DHT22;30894;51.740;19.498;2022-08-03T05:55:07;21.40;95.70
45137;DHT22;30894;51.740;19.498;2022-08-03T05:57:34;21.40;96.10
45137;DHT22;30894;51.740;19.498;2022-08-03T06:00:08;21.30;96.60
45137;DHT22;30894;51.740;19.498;2022-08-03T06:02:36;21.30;97.20
45137;DHT22;30894;51.740;19.498;2022-08-03T06:05:02;21.30;97.70
45137;DHT22;30894;51.740;19.498;2022-08-03T06:07:28;21.30;98.10
45137;DHT22;30894;51.740;19.498;2022-08-03T06:09:54;21.20;98.50
45137;DHT22;30894;51.740;19.498;2022-08-03T06:12:20;21.30;98.90
45137;DHT22;30894;51.740;19.498;2022-08-03T06:14:46;21.60;98.70
45137;DHT22;30894;51.740;19.498;2022-08-03T06:17:12;22.40;96.80
45137;DHT22;30894;51.740;19.498;2022-08-03T06:19:38;23.40;94.10
45137;DHT22;30894;51.740;19.498;2022-08-03T06:22:04;24.40;91.80
45137;DHT22;30894;51.740;19.498;2022-08-03T06:24:30;25.40;89.80
45137;DHT22;30894;51.740;19.498;2022-08-03T06:26:57;26.20;87.00
45137;DHT22;30894;51.740;19.498;2022-08-03T06:29:25;26.70;85.00
45137;DHT22;30894;51.740;19.498;2022-08-03T06:31:51;26.70;84.30
45137;DHT22;30894;51.740;19.498;2022-08-03T06:34:18;26.60;84.40
45137;DHT22;30894;51.740;19.498;2022-08-03T06:36:44;26.60;84.80
45137;DHT22;30894;51.740;19.498;2022-08-03T06:39:13;26.80;84.70
45137;DHT22;30894;51.740;19.498;2022-08-03T06:41:39;27.30;84.20
45137;DHT22;30894;51.740;19.498;2022-08-03T06:44:05;28.10;82.60
45137;DHT22;30894;51.740;19.498;2022-08-03T06:46:31;28.60;81.20
45137;DHT22;30894;51.740;19.498;2022-08-03T06:48:57;29.10;80.20
45137;DHT22;30894;51.740;19.498;2022-08-03T06:51:23;29.30;79.30
45137;DHT22;30894;51.740;19.498;2022-08-03T06:53:49;29.70;79.00
45137;DHT22;30894;51.740;19.498;2022-08-03T06:56:15;30.40;77.80
45137;DHT22;30894;51.740;19.498;2022-08-03T06:58:41;30.80;76.90
45137;DHT22;30894;51.740;19.498;2022-08-03T07:01:07;31.40;76.00
45137;DHT22;30894;51.740;19.498;2022-08-03T07:03:33;31.60;75.40
45137;DHT22;30894;51.740;19.498;2022-08-03T07:05:59;31.60;75.50
45137;DHT22;30894;51.740;19.498;2022-08-03T07:08:26;31.40;75.90
45137;DHT22;30894;51.740;19.498;2022-08-03T07:10:52;31.30;76.40
45137;DHT22;30894;51.740;19.498;2022-08-03T07:13:18;31.70;76.60
45137;DHT22;30894;51.740;19.498;2022-08-03T07:15:44;32.50;75.50
45137;DHT22;30894;51.740;19.498;2022-08-03T07:18:11;33.40;74.00
45137;DHT22;30894;51.740;19.498;2022-08-03T07:20:37;34.30;72.40
45137;DHT22;30894;51.740;19.498;2022-08-03T07:23:04;35.00;71.10
45137;DHT22;30894;51.740;19.498;2022-08-03T07:25:30;35.50;70.20
45137;DHT22;30894;51.740;19.498;2022-08-03T07:27:56;35.80;69.60
45137;DHT22;30894;51.740;19.498;2022-08-03T07:30:22;36.30;69.20
45137;DHT22;30894;51.740;19.498;2022-08-03T07:32:48;36.80;68.50
45137;DHT22;30894;51.740;19.498;2022-08-03T07:35:14;37.10;68.10
45137;DHT22;30894;51.740;19.498;2022-08-03T07:37:41;36.90;68.10
45137;DHT22;30894;51.740;19.498;2022-08-03T07:40:07;36.50;68.90
45137;DHT22;30894;51.740;19.498;2022-08-03T07:42:33;36.30;69.80
45137;DHT22;30894;51.740;19.498;2022-08-03T07:44:59;36.80;69.30
45137;DHT22;30894;51.740;19.498;2022-08-03T07:47:28;37.60;68.10
45137;DHT22;30894;51.740;19.498;2022-08-03T07:49:54;37.60;68.00
45137;DHT22;30894;51.740;19.498;2022-08-03T07:52:20;36.70;69.60
45137;DHT22;30894;51.740;19.498;2022-08-03T07:55:06;36.10;70.00
45137;DHT22;30894;51.740;19.498;2022-08-03T07:57:33;36.30;70.30
45137;DHT22;30894;51.740;19.498;2022-08-03T08:00:00;37.00;69.40
45137;DHT22;30894;51.740;19.498;2022-08-03T08:02:26;37.90;68.10
45137;DHT22;30894;51.740;19.498;2022-08-03T08:04:53;39.00;66.60
45137;DHT22;30894;51.740;19.498;2022-08-03T08:07:19;40.00;64.90
45137;DHT22;30894;51.740;19.498;2022-08-03T08:09:45;40.60;64.00
45137;DHT22;30894;51.740;19.498;2022-08-03T08:12:11;40.70;63.50
45137;DHT22;30894;51.740;19.498;2022-08-03T08:14:37;40.00;64.10
45137;DHT22;30894;51.740;19.498;2022-08-03T08:17:04;39.20;65.20
45137;DHT22;30894;51.740;19.498;2022-08-03T08:19:30;38.40;66.40
45137;DHT22;30894;51.740;19.498;2022-08-03T08:21:56;37.50;67.60
45137;DHT22;30894;51.740;19.498;2022-08-03T08:24:22;37.50;68.20
45137;DHT22;30894;51.740;19.498;2022-08-03T08:26:48;37.80;67.60
45137;DHT22;30894;51.740;19.498;2022-08-03T08:29:14;38.30;67.00
45137;DHT22;30894;51.740;19.498;2022-08-03T08:31:40;38.50;66.60
45137;DHT22;30894;51.740;19.498;2022-08-03T08:34:06;38.00;66.80
45137;DHT22;30894;51.740;19.498;2022-08-03T08:36:33;37.40;67.50
45137;DHT22;30894;51.740;19.498;2022-08-03T08:38:59;37.00;68.30
45137;DHT22;30894;51.740;19.498;2022-08-03T08:41:26;37.00;68.30
45137;DHT22;30894;51.740;19.498;2022-08-03T08:43:52;36.90;69.10
45137;DHT22;30894;51.740;19.498;2022-08-03T08:46:20;36.70;68.70
45137;DHT22;30894;51.740;19.498;2022-08-03T08:48:47;36.30;69.20
45137;DHT22;30894;51.740;19.498;2022-08-03T08:51:15;36.30;69.10
45137;DHT22;30894;51.740;19.498;2022-08-03T08:53:48;36.30;69.20
45137;DHT22;30894;51.740;19.498;2022-08-03T08:56:16;37.40;67.70
45137;DHT22;30894;51.740;19.498;2022-08-03T08:58:52;38.00;66.80
45137;DHT22;30894;51.740;19.498;2022-08-03T09:01:20;38.70;65.30
45137;DHT22;30894;51.740;19.498;2022-08-03T09:03:47;38.50;65.10
45137;DHT22;30894;51.740;19.498;2022-08-03T09:06:13;37.40;66.20
45137;DHT22;30894;51.740;19.498;2022-08-03T09:08:40;36.80;67.10
45137;DHT22;30894;51.740;19.498;2022-08-03T09:11:06;36.30;67.90
45137;DHT22;30894;51.740;19.498;2022-08-03T09:13:33;35.70;68.80
45137;DHT22;30894;51.740;19.498;2022-08-03T09:16:17;35.10;69.80
45137;DHT22;30894;51.740;19.498;2022-08-03T09:18:50;34.30;70.70
45137;DHT22;30894;51.740;19.498;2022-08-03T09:21:26;34.50;70.50
45137;DHT22;30894;51.740;19.498;2022-08-03T09:23:58;34.80;70.00
45137;DHT22;30894;51.740;19.498;2022-08-03T09:26:27;34.70;69.90
45137;DHT22;30894;51.740;19.498;2022-08-03T09:29:05;34.70;69.90
45137;DHT22;30894;51.740;19.498;2022-08-03T09:31:37;34.40;70.20
45137;DHT22;30894;51.740;19.498;2022-08-03T09:34:06;34.10;70.80
45137;DHT22;30894;51.740;19.498;2022-08-03T09:36:41;33.90;70.70
45137;DHT22;30894;51.740;19.498;2022-08-03T09:39:17;35.30;69.30
45137;DHT22;30894;51.740;19.498;2022-08-03T09:42:06;37.70;66.70
45137;DHT22;30894;51.740;19.498;2022-08-03T09:44:39;39.40;63.00
45137;DHT22;30894;51.740;19.498;2022-08-03T09:47:10;40.20;61.10
45137;DHT22;30894;51.740;19.498;2022-08-03T09:49:38;40.60;60.20
45137;DHT22;30894;51.740;19.498;2022-08-03T09:52:18;41.00;59.80
45137;DHT22;30894;51.740;19.498;2022-08-03T09:54:51;41.50;59.10
45137;DHT22;30894;51.740;19.498;2022-08-03T09:57:23;41.00;59.30
45137;DHT22;30894;51.740;19.498;2022-08-03T09:59:51;41.20;59.40
45137;DHT22;30894;51.740;19.498;2022-08-03T10:02:26;41.60;59.00
45137;DHT22;30894;51.740;19.498;2022-08-03T10:04:53;41.00;59.40
45137;DHT22;30894;51.740;19.498;2022-08-03T10:07:23;40.60;60.00
45137;DHT22;30894;51.740;19.498;2022-08-03T10:09:59;40.80;59.80
45137;DHT22;30894;51.740;19.498;2022-08-03T10:12:26;41.30;59.50
45137;DHT22;30894;51.740;19.498;2022-08-03T10:14:53;41.80;58.70
45137;DHT22;30894;51.740;19.498;2022-08-03T10:17:21;42.40;58.20
45137;DHT22;30894;51.740;19.498;2022-08-03T10:19:48;43.30;57.50
45137;DHT22;30894;51.740;19.498;2022-08-03T10:22:26;43.80;56.80
45137;DHT22;30894;51.740;19.498;2022-08-03T10:25:02;43.90;56.60
45137;DHT22;30894;51.740;19.498;2022-08-03T10:27:37;43.90;56.50
45137;DHT22;30894;51.740;19.498;2022-08-03T10:30:07;43.90;56.30
45137;DHT22;30894;51.740;19.498;2022-08-03T10:32:43;44.00;56.20
45137;DHT22;30894;51.740;19.498;2022-08-03T10:35:24;42.90;57.10
45137;DHT22;30894;51.740;19.498;2022-08-03T10:37:59;41.30;58.70
45137;DHT22;30894;51.740;19.498;2022-08-03T10:40:30;40.80;59.40
45137;DHT22;30894;51.740;19.498;2022-08-03T10:43:08;41.20;59.20
45137;DHT22;30894;51.740;19.498;2022-08-03T10:45:41;41.60;58.40
45137;DHT22;30894;51.740;19.498;2022-08-03T10:48:08;42.20;58.00
45137;DHT22;30894;51.740;19.498;2022-08-03T10:50:35;42.80;57.10
45137;DHT22;30894;51.740;19.498;2022-08-03T10:53:03;43.30;56.60
45137;DHT22;30894;51.740;19.498;2022-08-03T10:55:39;44.20;56.50
45137;DHT22;30894;51.740;19.498;2022-08-03T10:58:47;45.00;54.90
45137;DHT22;30894;51.740;19.498;2022-08-03T11:01:15;44.30;55.00
45137;DHT22;30894;51.740;19.498;2022-08-03T11:06:22;42.40;56.60
45137;DHT22;30894;51.740;19.498;2022-08-03T11:11:38;40.10;59.60
45137;DHT22;30894;51.740;19.498;2022-08-03T11:14:10;40.40;59.30
45137;DHT22;30894;51.740;19.498;2022-08-03T11:16:43;41.50;58.30
45137;DHT22;30894;51.740;19.498;2022-08-03T11:19:16;42.50;57.00
45137;DHT22;30894;51.740;19.498;2022-08-03T11:30:09;44.10;54.60
45137;DHT22;30894;51.740;19.498;2022-08-03T11:40:44;42.00;56.90
45137;DHT22;30894;51.740;19.498;2022-08-03T11:50:59;42.50;56.50
45137;DHT22;30894;51.740;19.498;2022-08-03T11:53:27;43.30;55.40
45137;DHT22;30894;51.740;19.498;2022-08-03T11:55:53;42.70;55.50
45137;DHT22;30894;51.740;19.498;2022-08-03T11:58:23;42.60;55.50
45137;DHT22;30894;51.740;19.498;2022-08-03T12:00:51;42.70;55.60
45137;DHT22;30894;51.740;19.498;2022-08-03T12:03:20;42.80;55.40
45137;DHT22;30894;51.740;19.498;2022-08-03T12:05:51;42.90;55.20
45137;DHT22;30894;51.740;19.498;2022-08-03T12:08:38;43.00;54.80
45137;DHT22;30894;51.740;19.498;2022-08-03T12:11:07;42.70;55.10
45137;DHT22;30894;51.740;19.498;2022-08-03T12:13:44;42.80;54.70
45137;DHT22;30894;51.740;19.498;2022-08-03T12:16:22;41.90;55.20
45137;DHT22;30894;51.740;19.498;2022-08-03T12:19:00;42.00;55.60
45137;DHT22;30894;51.740;19.498;2022-08-03T12:21:29;42.20;55.30
45137;DHT22;30894;51.740;19.498;2022-08-03T12:23:57;42.20;55.20
45137;DHT22;30894;51.740;19.498;2022-08-03T12:26:25;42.30;55.00
45137;DHT22;30894;51.740;19.498;2022-08-03T12:28:51;43.10;54.50
45137;DHT22;30894;51.740;19.498;2022-08-03T12:31:17;43.40;53.90
45137;DHT22;30894;51.740;19.498;2022-08-03T12:34:04;42.40;54.40
45137;DHT22;30894;51.740;19.498;2022-08-03T12:36:34;41.00;55.90
45137;DHT22;30894;51.740;19.498;2022-08-03T12:39:07;40.30;56.70
45137;DHT22;30894;51.740;19.498;2022-08-03T12:41:39;40.90;56.40
45137;DHT22;30894;51.740;19.498;2022-08-03T12:44:07;42.00;55.20
45137;DHT22;30894;51.740;19.498;2022-08-03T12:46:38;42.90;55.00
45137;DHT22;30894;51.740;19.498;2022-08-03T12:49:10;43.30;53.70
45137;DHT22;30894;51.740;19.498;2022-08-03T12:54:19;43.20;53.30
45137;DHT22;30894;51.740;19.498;2022-08-03T12:57:06;43.40;53.20
45137;DHT22;30894;51.740;19.498;2022-08-03T12:59:40;44.00;52.80
45137;DHT22;30894;51.740;19.498;2022-08-03T13:02:15;44.50;52.20
45137;DHT22;30894;51.740;19.498;2022-08-03T13:04:42;44.80;51.70
45137;DHT22;30894;51.740;19.498;2022-08-03T13:07:10;45.20;51.60
45137;DHT22;30894;51.740;19.498;2022-08-03T13:09:44;45.40;51.20
45137;DHT22;30894;51.740;19.498;2022-08-03T13:12:20;45.10;51.20
45137;DHT22;30894;51.740;19.498;2022-08-03T13:14:48;44.80;51.40
45137;DHT22;30894;51.740;19.498;2022-08-03T13:17:15;44.20;51.50
45137;DHT22;30894;51.740;19.498;2022-08-03T13:19:41;43.70;52.00
45137;DHT22;30894;51.740;19.498;2022-08-03T13:22:15;43.60;52.20
45137;DHT22;30894;51.740;19.498;2022-08-03T13:24:47;43.50;52.40
45137;DHT22;30894;51.740;19.498;2022-08-03T13:27:15;43.60;52.10
45137;DHT22;30894;51.740;19.498;2022-08-03T13:29:42;43.10;52.20
45137;DHT22;30894;51.740;19.498;2022-08-03T13:32:09;42.70;52.40
45137;DHT22;30894;51.740;19.498;2022-08-03T13:34:36;42.60;52.50
45137;DHT22;30894;51.740;19.498;2022-08-03T13:37:04;42.60;52.40
45137;DHT22;30894;51.740;19.498;2022-08-03T13:39:30;42.40;52.60
45137;DHT22;30894;51.740;19.498;2022-08-03T13:41:56;42.40;52.70
45137;DHT22;30894;51.740;19.498;2022-08-03T13:44:22;42.70;52.60
45137;DHT22;30894;51.740;19.498;2022-08-03T13:46:49;42.70;52.20
45137;DHT22;30894;51.740;19.498;2022-08-03T13:49:15;42.10;52.20
45137;DHT22;30894;51.740;19.498;2022-08-03T13:51:41;42.00;52.60
45137;DHT22;30894;51.740;19.498;2022-08-03T13:54:07;42.40;52.20
45137;DHT22;30894;51.740;19.498;2022-08-03T13:56:33;42.70;51.80
45137;DHT22;30894;51.740;19.498;2022-08-03T13:58:59;42.40;51.80
45137;DHT22;30894;51.740;19.498;2022-08-03T14:01:25;42.00;52.30
45137;DHT22;30894;51.740;19.498;2022-08-03T14:03:52;42.00;52.30
45137;DHT22;30894;51.740;19.498;2022-08-03T14:06:22;42.40;52.10
45137;DHT22;30894;51.740;19.498;2022-08-03T14:08:50;42.80;51.40
45137;DHT22;30894;51.740;19.498;2022-08-03T14:11:16;42.90;51.30
45137;DHT22;30894;51.740;19.498;2022-08-03T14:13:43;42.80;51.20
45137;DHT22;30894;51.740;19.498;2022-08-03T14:16:09;42.50;51.40
45137;DHT22;30894;51.740;19.498;2022-08-03T14:18:35;42.40;51.60
45137;DHT22;30894;51.740;19.498;2022-08-03T14:21:04;42.80;51.30
45137;DHT22;30894;51.740;19.498;2022-08-03T14:23:30;43.40;50.90
45137;DHT22;30894;51.740;19.498;2022-08-03T14:25:57;43.80;50.50
45137;DHT22;30894;51.740;19.498;2022-08-03T14:28:23;44.00;50.30
45137;DHT22;30894;51.740;19.498;2022-08-03T14:30:51;43.80;50.10
45137;DHT22;30894;51.740;19.498;2022-08-03T14:33:17;43.10;50.50
45137;DHT22;30894;51.740;19.498;2022-08-03T14:35:43;42.60;51.00
45137;DHT22;30894;51.740;19.498;2022-08-03T14:38:12;42.20;51.20
45137;DHT22;30894;51.740;19.498;2022-08-03T14:40:38;42.10;51.40
45137;DHT22;30894;51.740;19.498;2022-08-03T14:43:04;41.90;51.30
45137;DHT22;30894;51.740;19.498;2022-08-03T14:45:30;41.40;51.50
45137;DHT22;30894;51.740;19.498;2022-08-03T14:47:56;40.90;51.70
45137;DHT22;30894;51.740;19.498;2022-08-03T14:50:25;40.60;52.00
45137;DHT22;30894;51.740;19.498;2022-08-03T14:52:53;40.30;52.10
45137;DHT22;30894;51.740;19.498;2022-08-03T14:55:19;40.10;52.20
45137;DHT22;30894;51.740;19.498;2022-08-03T14:57:47;40.10;52.40
45137;DHT22;30894;51.740;19.498;2022-08-03T15:00:14;40.30;52.00
45137;DHT22;30894;51.740;19.498;2022-08-03T15:02:40;40.40;52.00
45137;DHT22;30894;51.740;19.498;2022-08-03T15:05:06;40.50;51.70
45137;DHT22;30894;51.740;19.498;2022-08-03T15:07:33;40.20;51.70
45137;DHT22;30894;51.740;19.498;2022-08-03T15:09:59;39.50;52.20
45137;DHT22;30894;51.740;19.498;2022-08-03T15:12:25;39.40;52.40
45137;DHT22;30894;51.740;19.498;2022-08-03T15:14:51;39.20;52.50
45137;DHT22;30894;51.740;19.498;2022-08-03T15:17:17;39.40;52.40
45137;DHT22;30894;51.740;19.498;2022-08-03T15:19:43;39.70;52.00
45137;DHT22;30894;51.740;19.498;2022-08-03T15:22:09;39.90;51.70
45137;DHT22;30894;51.740;19.498;2022-08-03T15:24:35;39.80;51.70
45137;DHT22;30894;51.740;19.498;2022-08-03T15:27:01;39.60;51.70
45137;DHT22;30894;51.740;19.498;2022-08-03T15:29:27;39.60;51.80
45137;DHT22;30894;51.740;19.498;2022-08-03T15:31:53;39.40;51.70
45137;DHT22;30894;51.740;19.498;2022-08-03T15:34:19;39.00;51.90
45137;DHT22;30894;51.740;19.498;2022-08-03T15:36:45;38.90;52.10
45137;DHT22;30894;51.740;19.498;2022-08-03T15:39:11;38.80;52.20
45137;DHT22;30894;51.740;19.498;2022-08-03T15:41:37;38.50;52.20
45137;DHT22;30894;51.740;19.498;2022-08-03T15:44:03;38.30;52.40
45137;DHT22;30894;51.740;19.498;2022-08-03T15:46:29;38.10;52.60
45137;DHT22;30894;51.740;19.498;2022-08-03T15:48:55;38.10;52.50
45137;DHT22;30894;51.740;19.498;2022-08-03T15:51:21;37.60;52.60
45137;DHT22;30894;51.740;19.498;2022-08-03T15:53:47;37.20;53.50
45137;DHT22;30894;51.740;19.498;2022-08-03T15:56:13;37.00;53.20
45137;DHT22;30894;51.740;19.498;2022-08-03T15:58:39;36.90;53.30
45137;DHT22;30894;51.740;19.498;2022-08-03T16:01:06;36.80;53.30
45137;DHT22;30894;51.740;19.498;2022-08-03T16:03:32;36.60;53.50